Station Historical Data
Daily Summary for April 6, 2017 Units:  English    Metric   Both
« Previous Day
Next Day »
Daily Weekly Monthly Yearly Custom
  High: Low: Average:
Temperature: 54.3 °F 32.9 °F 46.2 °F
Dew Point: 49.8 °F 30.8 °F 42.6 °F
Humidity: 93% 79% 88%
Wind Speed: 14.0mph 0.0mph 3.9mph
Wind Gust: 19.0mph - -
Wind- - SE
Pressure: 29.67 in 29.19 in -
Precipitation: 0.00 in    
Historical Graphs
 
 
Tabular Data for April 6, 2017
Time Temperature Dew Point Pressure Wind Wind Speed Wind Gust Humidity Rainfall Rate (Hourly)
00:04 43.1 °F 37.0 °F 29.67 in NE 9.0 mph 15.0 mph 79% 0.00 in
00:09 43.1 °F 37.0 °F 29.67 in NE 9.0 mph 17.0 mph 79% 0.00 in
00:14 43.1 °F 37.3 °F 29.67 in NE 9.0 mph 17.0 mph 80% 0.00 in
00:19 43.1 °F 37.3 °F 29.67 in NE 9.0 mph 16.0 mph 80% 0.00 in
00:24 43.0 °F 37.3 °F 29.67 in NE 9.0 mph 17.0 mph 80% 0.00 in
00:29 43.0 °F 37.3 °F 29.67 in NNE 6.0 mph 14.0 mph 80% 0.00 in
00:34 43.0 °F 37.3 °F 29.67 in NE 9.0 mph 15.0 mph 80% 0.00 in
00:39 43.0 °F 37.3 °F 29.67 in ENE 14.0 mph 17.0 mph 80% 0.00 in
00:44 43.1 °F 37.3 °F 29.66 in NE 6.0 mph 16.0 mph 80% 0.00 in
00:49 43.2 °F 37.4 °F 29.66 in NE 4.0 mph 15.0 mph 80% 0.00 in
00:54 43.2 °F 37.4 °F 29.65 in NE 6.0 mph 13.0 mph 80% 0.00 in
00:59 43.3 °F 37.5 °F 29.64 in East 10.0 mph 16.0 mph 80% 0.00 in
01:04 43.4 °F 37.6 °F 29.64 in ENE 8.0 mph 17.0 mph 80% 0.00 in
01:09 43.4 °F 37.6 °F 29.64 in ENE 8.0 mph 17.0 mph 80% 0.00 in
01:14 43.4 °F 37.6 °F 29.63 in ENE 7.0 mph 17.0 mph 80% 0.00 in
01:19 43.3 °F 37.5 °F 29.63 in ENE 6.0 mph 17.0 mph 80% 0.00 in
01:24 43.3 °F 37.5 °F 29.62 in ENE 6.0 mph 13.0 mph 80% 0.00 in
01:29 43.3 °F 37.5 °F 29.62 in ENE 6.0 mph 13.0 mph 80% 0.00 in
01:34 43.3 °F 37.5 °F 29.62 in ENE 8.0 mph 14.0 mph 80% 0.00 in
01:39 43.3 °F 37.5 °F 29.62 in ENE 7.0 mph 14.0 mph 80% 0.00 in
01:44 43.4 °F 37.6 °F 29.61 in ENE 6.0 mph 14.0 mph 80% 0.00 in
01:49 43.4 °F 37.6 °F 29.60 in NE 12.0 mph 14.0 mph 80% 0.00 in
01:54 43.4 °F 37.6 °F 29.59 in NE 6.0 mph 12.0 mph 80% 0.00 in
01:59 43.4 °F 37.6 °F 29.59 in East 8.0 mph 15.0 mph 80% 0.00 in
02:04 43.4 °F 37.6 °F 29.59 in NE 7.0 mph 13.0 mph 80% 0.00 in
02:09 43.4 °F 37.6 °F 29.59 in ENE 7.0 mph 13.0 mph 80% 0.00 in
02:14 43.4 °F 37.6 °F 29.59 in ENE 7.0 mph 13.0 mph 80% 0.00 in
02:19 43.4 °F 38.0 °F 29.59 in ENE 7.0 mph 13.0 mph 81% 0.00 in
02:24 43.4 °F 38.0 °F 29.58 in ENE 6.0 mph 13.0 mph 81% 0.00 in
02:29 43.4 °F 38.0 °F 29.58 in ENE 12.0 mph 12.0 mph 81% 0.00 in
02:34 43.4 °F 38.0 °F 29.58 in NE 3.0 mph 12.0 mph 81% 0.00 in
02:39 43.4 °F 38.0 °F 29.57 in NE 8.0 mph 12.0 mph 81% 0.00 in
02:44 43.5 °F 38.1 °F 29.57 in NE 7.0 mph 14.0 mph 81% 0.00 in
02:49 43.5 °F 38.1 °F 29.56 in NE 6.0 mph 14.0 mph 81% 0.00 in
02:54 43.4 °F 38.0 °F 29.56 in NE 4.0 mph 13.0 mph 81% 0.00 in
02:59 43.5 °F 38.1 °F 29.55 in NE 5.0 mph 12.0 mph 81% 0.00 in
03:04 43.5 °F 38.1 °F 29.55 in NE 3.0 mph 13.0 mph 81% 0.00 in
03:09 43.5 °F 38.1 °F 29.54 in NNE 5.0 mph 10.0 mph 81% 0.00 in
03:14 43.5 °F 38.1 °F 29.53 in NE 6.0 mph 12.0 mph 81% 0.00 in
03:19 43.5 °F 38.1 °F 29.53 in ENE 9.0 mph 10.0 mph 81% 0.00 in
03:24 43.5 °F 38.1 °F 29.53 in NNE 4.0 mph 13.0 mph 81% 0.00 in
03:29 43.5 °F 38.1 °F 29.53 in ENE 5.0 mph 12.0 mph 81% 0.00 in
03:34 43.5 °F 38.1 °F 29.53 in NE 8.0 mph 10.0 mph 81% 0.00 in
03:39 43.7 °F 38.3 °F 29.52 in NE 5.0 mph 11.0 mph 81% 0.00 in
03:44 43.7 °F 38.3 °F 29.52 in NNE 4.0 mph 10.0 mph 81% 0.00 in
03:49 43.8 °F 38.3 °F 29.51 in NE 6.0 mph 10.0 mph 81% 0.00 in
03:54 43.9 °F 38.4 °F 29.51 in NE 5.0 mph 10.0 mph 81% 0.00 in
03:59 44.0 °F 38.5 °F 29.51 in NE 5.0 mph 10.0 mph 81% 0.00 in
04:04 44.1 °F 38.6 °F 29.51 in NE 5.0 mph 11.0 mph 81% 0.00 in
04:09 44.1 °F 38.6 °F 29.50 in NE 5.0 mph 10.0 mph 81% 0.00 in
04:14 44.2 °F 38.7 °F 29.50 in ENE 3.0 mph 8.0 mph 81% 0.00 in
04:19 44.2 °F 39.1 °F 29.50 in NE 4.0 mph 8.0 mph 82% 0.01 in
04:24 44.2 °F 39.4 °F 29.50 in ENE 5.0 mph 11.0 mph 83% 0.01 in
04:29 44.2 °F 39.7 °F 29.49 in ENE 4.0 mph 9.0 mph 84% 0.01 in
04:34 44.3 °F 39.8 °F 29.49 in NE 3.0 mph 9.0 mph 84% 0.01 in
04:39 44.3 °F 40.1 °F 29.48 in NE 2.0 mph 7.0 mph 85% 0.01 in
04:44 44.3 °F 40.1 °F 29.49 in NE 6.0 mph 8.0 mph 85% 0.01 in
04:49 44.4 °F 40.2 °F 29.48 in ENE 4.0 mph 9.0 mph 85% 0.01 in
04:54 44.6 °F 40.7 °F 29.48 in ENE 4.0 mph 9.0 mph 86% 0.02 in
04:59 44.7 °F 40.8 °F 29.48 in ENE 3.0 mph 9.0 mph 86% 0.03 in
05:04 44.9 °F 41.3 °F 29.47 in ENE 3.0 mph 9.0 mph 87% 0.04 in
05:09 45.1 °F 41.5 °F 29.47 in ENE 3.0 mph 5.0 mph 87% 0.05 in
05:14 45.2 °F 41.6 °F 29.46 in ENE 3.0 mph 7.0 mph 87% 0.06 in
05:19 45.3 °F 42.0 °F 29.46 in ESE 3.0 mph 8.0 mph 88% 0.05 in
05:24 45.4 °F 42.1 °F 29.45 in ENE 4.0 mph 8.0 mph 88% 0.05 in
05:29 45.6 °F 42.3 °F 29.45 in East 3.0 mph 7.0 mph 88% 0.05 in
05:34 45.8 °F 42.4 °F 29.45 in ENE 4.0 mph 6.0 mph 88% 0.05 in
05:39 45.9 °F 42.5 °F 29.45 in Calm   4.0 mph 88% 0.05 in
05:44 46.1 °F 43.0 °F 29.44 in ENE 3.0 mph 5.0 mph 89% 0.05 in
05:49 46.7 °F 43.6 °F 29.44 in ENE 3.0 mph 7.0 mph 89% 0.05 in
05:54 47.3 °F 44.2 °F 29.43 in NE 3.0 mph 6.0 mph 89% 0.04 in
05:59 47.6 °F 44.5 °F 29.45 in ENE 3.0 mph 6.0 mph 89% 0.03 in
06:04 48.1 °F 45.0 °F 29.44 in ENE 2.0 mph 6.0 mph 89% 0.02 in
06:09 48.7 °F 45.6 °F 29.44 in East 2.0 mph 6.0 mph 89% 0.01 in
06:14 49.1 °F 46.0 °F 29.44 in Calm   5.0 mph 89% 0.00 in
06:19 49.5 °F 46.1 °F 29.44 in ESE 1.0 mph 2.0 mph 88% 0.00 in
06:24 50.2 °F 46.8 °F 29.43 in Calm   5.0 mph 88% 0.00 in
06:29 50.8 °F 47.4 °F 29.43 in ESE 1.0 mph 5.0 mph 88% 0.00 in
06:34 51.4 °F 47.7 °F 29.42 in SE 1.0 mph 3.0 mph 87% 0.00 in
06:39 52.0 °F 47.9 °F 29.42 in SE 1.0 mph 4.0 mph 86% 0.00 in
06:44 52.7 °F 48.3 °F 29.42 in SSE 2.0 mph 8.0 mph 85% 0.00 in
06:49 53.1 °F 48.4 °F 29.42 in SE 5.0 mph 7.0 mph 84% 0.00 in
06:54 53.5 °F 48.5 °F 29.42 in SSE 4.0 mph 8.0 mph 83% 0.00 in
06:59 53.6 °F 48.2 °F 29.42 in South 2.0 mph 4.0 mph 82% 0.00 in
07:04 53.6 °F 48.2 °F 29.42 in SSE 2.0 mph 5.0 mph 82% 0.00 in
07:09 53.7 °F 48.3 °F 29.42 in SSE 2.0 mph 5.0 mph 82% 0.00 in
07:14 53.7 °F 48.3 °F 29.43 in SSE 2.0 mph 6.0 mph 82% 0.01 in
07:19 53.9 °F 48.5 °F 29.43 in South 2.0 mph 6.0 mph 82% 0.01 in
07:24 54.0 °F 48.3 °F 29.43 in SSE 6.0 mph 6.0 mph 81% 0.01 in
07:29 54.1 °F 48.4 °F 29.43 in South 3.0 mph 6.0 mph 81% 0.01 in
07:34 54.2 °F 48.5 °F 29.43 in South 3.0 mph 7.0 mph 81% 0.01 in
07:39 54.3 °F 48.6 °F 29.43 in South 3.0 mph 7.0 mph 81% 0.01 in
07:44 54.3 °F 48.6 °F 29.42 in South 3.0 mph 7.0 mph 81% 0.01 in
07:49 54.2 °F 48.5 °F 29.42 in South 3.0 mph 7.0 mph 81% 0.01 in
07:54 54.3 °F 48.6 °F 29.42 in SSE 2.0 mph 5.0 mph 81% 0.01 in
07:59 54.3 °F 48.6 °F 29.42 in SSE 4.0 mph 5.0 mph 81% 0.01 in
08:04 54.2 °F 48.2 °F 29.42 in South 3.0 mph 8.0 mph 80% 0.01 in
08:09 54.2 °F 48.2 °F 29.41 in SSE 4.0 mph 11.0 mph 80% 0.01 in
08:14 54.2 °F 48.2 °F 29.40 in SSE 5.0 mph 11.0 mph 80% 0.00 in
08:19 54.1 °F 47.7 °F 29.40 in South 3.0 mph 9.0 mph 79% 0.00 in
08:24 54.1 °F 47.7 °F 29.40 in South 8.0 mph 8.0 mph 79% 0.00 in
08:29 53.9 °F 47.5 °F 29.40 in SSE 1.0 mph 9.0 mph 79% 0.00 in
08:34 53.9 °F 47.5 °F 29.40 in South 1.0 mph 3.0 mph 79% 0.00 in
08:39 53.9 °F 47.5 °F 29.40 in South 1.0 mph 4.0 mph 79% 0.00 in
08:44 53.8 °F 47.4 °F 29.40 in South 1.0 mph 4.0 mph 79% 0.00 in
08:49 53.8 °F 47.4 °F 29.40 in South 2.0 mph 6.0 mph 79% 0.00 in
08:54 53.8 °F 47.4 °F 29.40 in Calm   4.0 mph 79% 0.00 in
08:59 53.8 °F 47.4 °F 29.40 in SSE 2.0 mph 4.0 mph 79% 0.00 in
09:04 53.8 °F 47.4 °F 29.40 in SE 2.0 mph 5.0 mph 79% 0.00 in
09:09 53.6 °F 47.6 °F 29.39 in Calm   4.0 mph 80% 0.00 in
09:14 53.3 °F 47.6 °F 29.39 in SSE 2.0 mph 3.0 mph 81% 0.01 in
09:19 53.1 °F 47.7 °F 29.38 in ESE 1.0 mph 5.0 mph 82% 0.01 in
09:24 52.7 °F 47.7 °F 29.38 in Calm   3.0 mph 83% 0.02 in
09:29 52.4 °F 47.7 °F 29.38 in Calm   4.0 mph 84% 0.02 in
09:34 52.2 °F 47.8 °F 29.38 in SE 1.0 mph 4.0 mph 85% 0.03 in
09:39 52.1 °F 48.0 °F 29.38 in SSE 1.0 mph 2.0 mph 86% 0.03 in
09:44 52.0 °F 47.9 °F 29.38 in Calm   3.0 mph 86% 0.04 in
09:49 51.8 °F 48.1 °F 29.38 in ESE 1.0 mph 5.0 mph 87% 0.06 in
09:54 51.6 °F 47.9 °F 29.38 in ESE 2.0 mph 5.0 mph 87% 0.07 in
09:59 51.5 °F 47.8 °F 29.38 in SE 3.0 mph 5.0 mph 87% 0.08 in
10:04 51.3 °F 47.9 °F 29.38 in SSE 3.0 mph 6.0 mph 88% 0.09 in
10:09 51.2 °F 47.8 °F 29.38 in SSE 3.0 mph 8.0 mph 88% 0.11 in
10:14 51.0 °F 47.6 °F 29.38 in Calm   7.0 mph 88% 0.11 in
10:19 50.8 °F 47.7 °F 29.38 in SSE 4.0 mph 8.0 mph 89% 0.12 in
10:24 50.8 °F 47.7 °F 29.38 in SE 3.0 mph 5.0 mph 89% 0.13 in
10:29 50.6 °F 47.5 °F 29.37 in SE 3.0 mph 6.0 mph 89% 0.15 in
10:34 50.6 °F 47.8 °F 29.37 in SE 1.0 mph 6.0 mph 90% 0.15 in
10:39 50.5 °F 47.7 °F 29.37 in SE 2.0 mph 7.0 mph 90% 0.16 in
10:44 50.4 °F 47.6 °F 29.37 in ESE 3.0 mph 6.0 mph 90% 0.16 in
10:49 50.3 °F 47.5 °F 29.37 in ESE 3.0 mph 6.0 mph 90% 0.16 in
10:54 50.2 °F 47.4 °F 29.37 in ESE 2.0 mph 8.0 mph 90% 0.16 in
10:59 50.1 °F 47.3 °F 29.37 in ESE 3.0 mph 8.0 mph 90% 0.18 in
11:04 49.9 °F 47.1 °F 29.37 in East 3.0 mph 8.0 mph 90% 0.20 in
11:09 49.8 °F 47.0 °F 29.38 in East 2.0 mph 6.0 mph 90% 0.21 in
11:14 49.7 °F 47.2 °F 29.37 in ENE 3.0 mph 3.0 mph 91% 0.25 in
11:19 49.6 °F 47.1 °F 29.37 in ENE 2.0 mph 6.0 mph 91% 0.26 in
11:24 49.6 °F 47.1 °F 29.37 in Calm   5.0 mph 91% 0.28 in
11:29 49.6 °F 47.1 °F 29.37 in NE 1.0 mph 4.0 mph 91% 0.28 in
11:34 49.6 °F 47.1 °F 29.37 in Calm   3.0 mph 91% 0.29 in
11:39 49.6 °F 47.1 °F 29.37 in NE 2.0 mph 3.0 mph 91% 0.28 in
11:44 49.6 °F 47.1 °F 29.36 in NE 1.0 mph 4.0 mph 91% 0.30 in
11:49 49.7 °F 47.2 °F 29.36 in NE 2.0 mph 4.0 mph 91% 0.29 in
11:54 49.7 °F 47.2 °F 29.35 in NE 2.0 mph 5.0 mph 91% 0.31 in
11:59 49.8 °F 47.6 °F 29.35 in ENE 2.0 mph 5.0 mph 92% 0.29 in
12:04 49.9 °F 47.7 °F 29.35 in ENE 2.0 mph 5.0 mph 92% 0.27 in
12:09 49.9 °F 47.7 °F 29.35 in ENE 2.0 mph 5.0 mph 92% 0.25 in
12:14 49.9 °F 47.7 °F 29.35 in East 2.0 mph 5.0 mph 92% 0.21 in
12:19 50.0 °F 47.8 °F 29.35 in East 2.0 mph 5.0 mph 92% 0.19 in
12:24 49.9 °F 47.7 °F 29.34 in NE 4.0 mph 8.0 mph 92% 0.17 in
12:29 50.1 °F 47.9 °F 29.34 in ENE 3.0 mph 5.0 mph 92% 0.16 in
12:34 50.3 °F 48.1 °F 29.34 in ENE 4.0 mph 4.0 mph 92% 0.15 in
12:39 50.5 °F 48.3 °F 29.33 in ENE 3.0 mph 5.0 mph 92% 0.15 in
12:44 50.5 °F 48.3 °F 29.34 in NE 1.0 mph 5.0 mph 92% 0.12 in
12:49 50.6 °F 48.4 °F 29.33 in NE 1.0 mph 3.0 mph 92% 0.12 in
12:54 50.8 °F 48.6 °F 29.33 in ENE 3.0 mph 4.0 mph 92% 0.10 in
12:59 50.8 °F 48.6 °F 29.33 in East 8.0 mph 8.0 mph 92% 0.09 in
13:04 50.8 °F 48.6 °F 29.32 in East 3.0 mph 8.0 mph 92% 0.09 in
13:09 51.0 °F 48.8 °F 29.32 in East 3.0 mph 8.0 mph 92% 0.08 in
13:14 51.2 °F 49.0 °F 29.32 in East 2.0 mph 6.0 mph 92% 0.07 in
13:19 51.4 °F 49.2 °F 29.32 in ENE 2.0 mph 5.0 mph 92% 0.06 in
13:24 51.4 °F 49.2 °F 29.32 in East 2.0 mph 5.0 mph 92% 0.05 in
13:29 51.4 °F 48.9 °F 29.31 in East 2.0 mph 6.0 mph 91% 0.05 in
13:34 51.4 °F 49.2 °F 29.31 in NE 3.0 mph 4.0 mph 92% 0.04 in
13:39 51.6 °F 49.1 °F 29.31 in East 1.0 mph 6.0 mph 91% 0.04 in
13:44 51.5 °F 49.0 °F 29.30 in ENE 3.0 mph 6.0 mph 91% 0.04 in
13:49 51.5 °F 49.0 °F 29.30 in ESE 2.0 mph 5.0 mph 91% 0.03 in
13:54 51.5 °F 49.0 °F 29.29 in East 5.0 mph 5.0 mph 91% 0.03 in
13:59 51.7 °F 49.2 °F 29.29 in East 1.0 mph 5.0 mph 91% 0.03 in
14:04 51.9 °F 49.4 °F 29.29 in East 1.0 mph 5.0 mph 91% 0.02 in
14:09 52.0 °F 49.5 °F 29.28 in East 2.0 mph 5.0 mph 91% 0.02 in
14:14 51.9 °F 49.4 °F 29.28 in East 2.0 mph 6.0 mph 91% 0.02 in
14:19 51.8 °F 49.3 °F 29.27 in East 3.0 mph 8.0 mph 91% 0.02 in
14:24 51.8 °F 49.3 °F 29.27 in ENE 3.0 mph 8.0 mph 91% 0.02 in
14:29 52.1 °F 49.6 °F 29.27 in ENE 3.0 mph 5.0 mph 91% 0.01 in
14:34 52.3 °F 49.8 °F 29.27 in ENE 2.0 mph 5.0 mph 91% 0.01 in
14:39 52.2 °F 49.7 °F 29.27 in ENE 3.0 mph 6.0 mph 91% 0.01 in
14:44 52.2 °F 49.7 °F 29.26 in Calm   6.0 mph 91% 0.02 in
14:49 52.0 °F 49.5 °F 29.26 in ENE 1.0 mph 3.0 mph 91% 0.02 in
14:54 51.8 °F 49.0 °F 29.26 in Calm   4.0 mph 90% 0.01 in
14:59 51.8 °F 49.0 °F 29.26 in East 2.0 mph 5.0 mph 90% 0.01 in
15:04 51.6 °F 49.1 °F 29.26 in ENE 1.0 mph 6.0 mph 91% 0.01 in
15:09 51.7 °F 49.2 °F 29.26 in SE 4.0 mph 6.0 mph 91% 0.01 in
15:14 51.7 °F 49.2 °F 29.25 in East 2.0 mph 6.0 mph 91% 0.01 in
15:19 51.7 °F 49.2 °F 29.25 in East 2.0 mph 6.0 mph 91% 0.01 in
15:24 51.5 °F 49.0 °F 29.25 in East 1.0 mph 5.0 mph 91% 0.01 in
15:29 51.7 °F 49.2 °F 29.24 in ENE 1.0 mph 3.0 mph 91% 0.02 in
15:34 51.7 °F 49.2 °F 29.23 in ENE 2.0 mph 6.0 mph 91% 0.02 in
15:39 51.8 °F 49.3 °F 29.23 in NE 4.0 mph 4.0 mph 91% 0.02 in
15:44 51.9 °F 49.4 °F 29.23 in NE 2.0 mph 5.0 mph 91% 0.01 in
15:49 52.0 °F 49.5 °F 29.22 in ENE 1.0 mph 6.0 mph 91% 0.01 in
15:54 52.1 °F 49.6 °F 29.22 in NE 2.0 mph 5.0 mph 91% 0.01 in
15:59 52.1 °F 49.6 °F 29.21 in NE 2.0 mph 6.0 mph 91% 0.01 in
16:04 52.3 °F 49.8 °F 29.21 in NE 1.0 mph 6.0 mph 91% 0.01 in
16:09 52.4 °F 49.8 °F 29.21 in East 3.0 mph 6.0 mph 91% 0.01 in
16:14 52.2 °F 49.4 °F 29.21 in ENE 2.0 mph 5.0 mph 90% 0.01 in
16:19 51.9 °F 49.1 °F 29.21 in NE 2.0 mph 6.0 mph 90% 0.01 in
16:24 51.6 °F 49.1 °F 29.21 in NNW 3.0 mph 6.0 mph 91% 0.01 in
16:29 51.5 °F 49.0 °F 29.20 in North 3.0 mph 6.0 mph 91% 0.00 in
16:34 51.7 °F 49.2 °F 29.20 in NNE 3.0 mph 6.0 mph 91% 0.01 in
16:39 51.6 °F 49.1 °F 29.20 in NNE 2.0 mph 5.0 mph 91% 0.01 in
16:44 51.6 °F 49.1 °F 29.19 in North 3.0 mph 4.0 mph 91% 0.01 in
16:49 51.5 °F 49.0 °F 29.19 in North 3.0 mph 6.0 mph 91% 0.01 in
16:54 51.4 °F 48.9 °F 29.20 in North 3.0 mph 7.0 mph 91% 0.01 in
16:59 51.2 °F 49.0 °F 29.20 in NNE 3.0 mph 7.0 mph 92% 0.01 in
17:04 51.1 °F 48.9 °F 29.19 in NNE 3.0 mph 5.0 mph 92% 0.01 in
17:09 51.0 °F 48.8 °F 29.19 in North 3.0 mph 8.0 mph 92% 0.01 in
17:14 50.8 °F 48.6 °F 29.19 in NE 5.0 mph 6.0 mph 92% 0.01 in
17:19 50.5 °F 48.3 °F 29.19 in North 5.0 mph 6.0 mph 92% 0.01 in
17:24 49.9 °F 47.4 °F 29.19 in North 4.0 mph 10.0 mph 91% 0.02 in
17:29 49.2 °F 46.7 °F 29.19 in North 3.0 mph 8.0 mph 91% 0.03 in
17:34 48.8 °F 46.6 °F 29.19 in North 5.0 mph 9.0 mph 92% 0.03 in
17:39 48.2 °F 45.7 °F 29.20 in NNW 12.0 mph 13.0 mph 91% 0.04 in
17:44 47.2 °F 44.7 °F 29.20 in North 4.0 mph 12.0 mph 91% 0.05 in
17:49 46.5 °F 44.0 °F 29.20 in NNW 7.0 mph 13.0 mph 91% 0.05 in
17:54 45.8 °F 43.3 °F 29.20 in North 5.0 mph 13.0 mph 91% 0.06 in
17:59 44.7 °F 42.2 °F 29.21 in NNW 5.0 mph 13.0 mph 91% 0.07 in
18:04 44.1 °F 41.6 °F 29.21 in North 5.0 mph 12.0 mph 91% 0.08 in
18:09 43.4 °F 40.9 °F 29.21 in North 7.0 mph 14.0 mph 91% 0.08 in
18:14 42.8 °F 40.4 °F 29.21 in North 7.0 mph 14.0 mph 91% 0.09 in
18:19 42.3 °F 39.9 °F 29.22 in North 7.0 mph 15.0 mph 91% 0.09 in
18:24 42.0 °F 39.6 °F 29.22 in North 2.0 mph 11.0 mph 91% 0.09 in
18:29 41.9 °F 39.5 °F 29.22 in North 6.0 mph 11.0 mph 91% 0.09 in
18:34 41.7 °F 39.3 °F 29.22 in NNE 5.0 mph 9.0 mph 91% 0.08 in
18:39 41.5 °F 39.1 °F 29.22 in NNE 6.0 mph 12.0 mph 91% 0.08 in
18:44 41.4 °F 39.0 °F 29.22 in North 4.0 mph 11.0 mph 91% 0.08 in
18:49 41.3 °F 38.9 °F 29.23 in North 4.0 mph 13.0 mph 91% 0.08 in
18:54 41.2 °F 38.8 °F 29.23 in NE 6.0 mph 12.0 mph 91% 0.08 in
18:59 41.1 °F 38.7 °F 29.23 in North 8.0 mph 16.0 mph 91% 0.08 in
19:04 41.1 °F 38.7 °F 29.23 in North 6.0 mph 16.0 mph 91% 0.08 in
19:09 41.0 °F 38.9 °F 29.23 in North 7.0 mph 14.0 mph 92% 0.09 in
19:14 41.0 °F 38.9 °F 29.23 in North 6.0 mph 13.0 mph 92% 0.08 in
19:19 41.1 °F 39.0 °F 29.23 in NNE 6.0 mph 10.0 mph 92% 0.09 in
19:24 41.2 °F 39.1 °F 29.23 in NNE 4.0 mph 10.0 mph 92% 0.09 in
19:29 41.2 °F 39.1 °F 29.23 in NE 5.0 mph 9.0 mph 92% 0.09 in
19:34 41.3 °F 39.2 °F 29.23 in North 5.0 mph 11.0 mph 92% 0.09 in
19:39 41.2 °F 39.1 °F 29.23 in North 5.0 mph 12.0 mph 92% 0.09 in
19:44 41.1 °F 39.0 °F 29.23 in North 5.0 mph 12.0 mph 92% 0.08 in
19:49 41.0 °F 38.9 °F 29.23 in North 6.0 mph 14.0 mph 92% 0.09 in
19:54 40.9 °F 38.8 °F 29.23 in NW 11.0 mph 13.0 mph 92% 0.09 in
19:59 40.7 °F 38.3 °F 29.23 in NNE 6.0 mph 16.0 mph 91% 0.08 in
20:04 40.7 °F 38.6 °F 29.23 in NE 6.0 mph 12.0 mph 92% 0.08 in
20:09 40.5 °F 38.1 °F 29.24 in North 4.0 mph 12.0 mph 91% 0.08 in
20:14 40.4 °F 38.3 °F 29.24 in NNW 10.0 mph 13.0 mph 92% 0.08 in
20:19 40.1 °F 37.7 °F 29.24 in NNE 6.0 mph 12.0 mph 91% 0.08 in
20:24 40.0 °F 37.6 °F 29.25 in NNE 8.0 mph 13.0 mph 91% 0.08 in
20:29 39.8 °F 37.4 °F 29.25 in North 4.0 mph 10.0 mph 91% 0.08 in
20:34 39.6 °F 37.2 °F 29.25 in North 4.0 mph 13.0 mph 91% 0.09 in
20:39 39.4 °F 37.0 °F 29.26 in North 6.0 mph 15.0 mph 91% 0.09 in
20:44 39.1 °F 36.7 °F 29.26 in North 7.0 mph 15.0 mph 91% 0.10 in
20:49 38.9 °F 36.5 °F 29.26 in North 7.0 mph 14.0 mph 91% 0.09 in
20:54 38.6 °F 36.2 °F 29.27 in North 7.0 mph 14.0 mph 91% 0.09 in
20:59 38.4 °F 36.0 °F 29.27 in North 6.0 mph 19.0 mph 91% 0.10 in
21:04 38.3 °F 35.9 °F 29.28 in NW 5.0 mph 10.0 mph 91% 0.10 in
21:09 38.1 °F 35.4 °F 29.28 in NNW 9.0 mph 13.0 mph 90% 0.10 in
21:14 37.9 °F 35.5 °F 29.28 in North 6.0 mph 13.0 mph 91% 0.12 in
21:19 37.9 °F 35.5 °F 29.29 in North 6.0 mph 12.0 mph 91% 0.12 in
21:24 37.8 °F 35.4 °F 29.29 in North 6.0 mph 12.0 mph 91% 0.12 in
21:29 37.7 °F 35.3 °F 29.29 in North 7.0 mph 12.0 mph 91% 0.12 in
21:34 37.5 °F 34.8 °F 29.29 in NNW 4.0 mph 13.0 mph 90% 0.12 in
21:39 37.3 °F 34.6 °F 29.30 in NW 4.0 mph 12.0 mph 90% 0.12 in
21:44 36.9 °F 34.2 °F 29.30 in NNE 6.0 mph 15.0 mph 90% 0.12 in
21:49 36.6 °F 33.9 °F 29.30 in NNW 5.0 mph 15.0 mph 90% 0.13 in
21:54 36.1 °F 33.5 °F 29.31 in NNW 6.0 mph 12.0 mph 90% 0.13 in
21:59 35.8 °F 33.2 °F 29.31 in NNW 6.0 mph 12.0 mph 90% 0.13 in
22:04 35.4 °F 32.8 °F 29.31 in NNW 5.0 mph 11.0 mph 90% 0.13 in
22:09 35.1 °F 32.5 °F 29.31 in NNW 5.0 mph 11.0 mph 90% 0.13 in
22:14 34.6 °F 32.0 °F 29.32 in NW 3.0 mph 7.0 mph 90% 0.11 in
22:19 34.1 °F 31.7 °F 29.32 in NW 4.0 mph 8.0 mph 91% 0.11 in
22:24 33.9 °F 31.6 °F 29.32 in WNW 2.0 mph 10.0 mph 91% 0.10 in
22:29 33.5 °F 31.2 °F 29.32 in NNW 4.0 mph 6.0 mph 91% 0.09 in
22:34 33.4 °F 31.1 °F 29.32 in NNW 2.0 mph 6.0 mph 91% 0.08 in
22:39 33.3 °F 31.0 °F 29.32 in North 2.0 mph 6.0 mph 91% 0.07 in
22:44 33.2 °F 30.9 °F 29.33 in NNW 4.0 mph 7.0 mph 91% 0.06 in
22:49 33.1 °F 31.0 °F 29.33 in NW 3.0 mph 7.0 mph 92% 0.05 in
22:54 33.0 °F 30.9 °F 29.32 in NW 2.0 mph 6.0 mph 92% 0.04 in
22:59 33.0 °F 30.9 °F 29.32 in NW 3.0 mph 7.0 mph 92% 0.03 in
23:04 33.0 °F 30.9 °F 29.32 in WNW 2.0 mph 7.0 mph 92% 0.02 in
23:09 32.9 °F 30.8 °F 29.33 in WNW 1.0 mph 4.0 mph 92% 0.01 in
23:14 32.9 °F 30.8 °F 29.33 in NW 2.0 mph 7.0 mph 92% 0.01 in
23:19 32.9 °F 30.8 °F 29.33 in NW 3.0 mph 7.0 mph 92% 0.00 in
23:24 33.0 °F 30.9 °F 29.33 in NW 3.0 mph 9.0 mph 92% 0.00 in
23:29 32.9 °F 30.8 °F 29.33 in NW 3.0 mph 5.0 mph 92% 0.00 in
23:34 32.9 °F 31.1 °F 29.33 in North 5.0 mph 7.0 mph 93% 0.00 in
23:39 32.9 °F 31.1 °F 29.33 in WNW 3.0 mph 8.0 mph 93% 0.00 in
23:44 32.9 °F 31.1 °F 29.33 in WNW 3.0 mph 7.0 mph 93% 0.00 in
23:49 32.9 °F 31.1 °F 29.33 in NW 4.0 mph 7.0 mph 93% 0.00 in
23:54 32.9 °F 31.1 °F 29.33 in NW 3.0 mph 8.0 mph 93% 0.00 in
23:59 32.9 °F 31.1 °F 29.33 in NW 3.0 mph 8.0 mph 93% 0.00 in
Buffalo, New York, USA
Compliments of Weather Underground - 2.5 mb